createdAt,value
2023-03-24T00:00:26.091Z,63.50
2023-03-24T00:02:56.787Z,60.20
2023-03-24T00:05:28.602Z,74.00
2023-03-24T00:08:02.652Z,63.20
2023-03-24T00:10:34.940Z,66.30
2023-03-24T00:15:36.558Z,66.40
2023-03-24T00:18:10.954Z,60.40
2023-03-24T00:20:41.367Z,63.80
2023-03-24T00:23:11.853Z,63.90
2023-03-24T00:25:45.356Z,59.10
2023-03-24T00:28:18.409Z,70.00
2023-03-24T00:30:53.280Z,60.60
2023-03-24T00:33:22.669Z,53.90
2023-03-24T00:35:51.948Z,52.20
2023-03-24T00:38:21.201Z,47.10
2023-03-24T00:40:51.482Z,56.80
2023-03-24T00:43:20.431Z,49.10
2023-03-24T00:45:52.612Z,55.70
2023-03-24T00:48:24.662Z,50.80
2023-03-24T00:50:54.514Z,51.00
2023-03-24T00:53:26.100Z,53.40
2023-03-24T00:55:55.843Z,50.20
2023-03-24T00:58:25.388Z,65.60
2023-03-24T01:00:56.313Z,54.30
2023-03-24T01:03:27.708Z,52.50
2023-03-24T01:06:03.045Z,55.00
2023-03-24T01:08:32.607Z,55.80
2023-03-24T01:11:01.656Z,51.20
2023-03-24T01:13:34.474Z,56.80
2023-03-24T01:16:03.520Z,53.50
2023-03-24T01:18:32.319Z,57.80
2023-03-24T01:21:01.585Z,54.60
2023-03-24T01:23:31.195Z,55.40
2023-03-24T01:26:00.538Z,53.30
2023-03-24T01:28:29.881Z,59.50
2023-03-24T01:30:58.573Z,58.10
2023-03-24T01:33:27.242Z,57.20
2023-03-24T01:35:56.199Z,53.00
2023-03-24T01:38:25.540Z,49.90
2023-03-24T01:40:55.581Z,66.40
2023-03-24T01:43:27.375Z,53.50
2023-03-24T01:45:58.882Z,50.90
2023-03-24T01:48:35.853Z,46.80
2023-03-24T01:51:07.524Z,62.20
2023-03-24T01:53:37.812Z,49.50
2023-03-24T01:56:07.500Z,41.70
2023-03-24T01:58:43.719Z,53.80
2023-03-24T02:01:32.684Z,56.30
2023-03-24T02:04:21.527Z,55.80
2023-03-24T02:06:51.072Z,63.10
2023-03-24T02:09:21.590Z,71.40
2023-03-24T02:11:50.750Z,76.40
2023-03-24T02:14:21.607Z,78.30
2023-03-24T02:17:10.037Z,54.40
2023-03-24T02:19:51.023Z,65.30
2023-03-24T02:22:36.966Z,67.50
2023-03-24T02:25:21.798Z,46.30
2023-03-24T02:27:54.377Z,44.00
2023-03-24T02:30:32.195Z,51.30
2023-03-24T02:33:06.915Z,57.10
2023-03-24T02:35:48.077Z,57.50
2023-03-24T02:38:42.620Z,46.30
2023-03-24T02:41:30.491Z,49.40
2023-03-24T02:44:11.192Z,53.20
2023-03-24T02:46:54.845Z,65.00
2023-03-24T02:49:28.452Z,59.60
2023-03-24T02:52:10.878Z,72.80
2023-03-24T02:57:34.860Z,59.00
2023-03-24T03:00:31.126Z,51.50
2023-03-24T03:03:34.717Z,45.60
2023-03-24T03:06:14.034Z,41.60
2023-03-24T03:08:43.119Z,46.90
2023-03-24T03:11:13.663Z,48.10
2023-03-24T03:13:54.921Z,48.80
2023-03-24T03:16:34.981Z,55.90
2023-03-24T03:19:10.149Z,58.70
2023-03-24T03:21:42.766Z,52.30
2023-03-24T03:24:27.728Z,66.30
2023-03-24T03:27:04.114Z,55.40
2023-03-24T03:29:35.803Z,50.90
2023-03-24T03:32:08.398Z,51.40
2023-03-24T03:35:09.680Z,54.70
2023-03-24T03:37:44.831Z,54.90
2023-03-24T03:40:18.553Z,51.30
2023-03-24T03:42:49.745Z,57.90
2023-03-24T03:45:20.298Z,55.00
2023-03-24T03:47:49.097Z,54.50
2023-03-24T03:50:18.128Z,59.80
2023-03-24T03:52:49.960Z,59.00
2023-03-24T03:55:19.416Z,56.60
2023-03-24T03:57:54.987Z,67.70
2023-03-24T04:00:33.728Z,63.40
2023-03-24T04:03:44.546Z,63.60
2023-03-24T04:06:54.065Z,58.00
2023-03-24T04:10:08.929Z,79.10
2023-03-24T04:13:13.330Z,65.60
2023-03-24T04:16:24.741Z,62.50
2023-03-24T04:19:18.317Z,77.20
2023-03-24T04:21:55.355Z,106.50
2023-03-24T04:24:37.815Z,101.70
2023-03-24T04:27:16.793Z,82.90
2023-03-24T04:30:23.688Z,71.10
2023-03-24T04:33:07.494Z,72.00
2023-03-24T04:35:44.256Z,64.60
2023-03-24T04:38:26.004Z,72.50
2023-03-24T04:41:20.011Z,63.70
2023-03-24T04:43:57.396Z,57.40
2023-03-24T04:46:30.596Z,73.30
2023-03-24T04:49:09.635Z,67.20
2023-03-24T04:51:40.737Z,59.80
2023-03-24T04:54:15.504Z,55.30
2023-03-24T04:56:53.895Z,72.40
2023-03-24T04:59:43.291Z,69.60
2023-03-24T05:02:12.309Z,71.40
2023-03-24T05:04:58.918Z,64.10
2023-03-24T05:07:37.785Z,58.80
2023-03-24T05:12:48.467Z,67.30
2023-03-24T05:15:55.781Z,59.00
2023-03-24T05:18:34.613Z,58.00
2023-03-24T05:21:04.283Z,61.60
2023-03-24T05:23:32.918Z,50.50
2023-03-24T05:26:03.313Z,63.40
2023-03-24T05:28:33.492Z,53.50
2023-03-24T05:31:02.222Z,48.20
2023-03-24T05:33:44.948Z,53.20
2023-03-24T05:36:16.450Z,57.20
2023-03-24T05:38:48.984Z,58.80
2023-03-24T05:41:17.909Z,48.10
2023-03-24T05:43:46.647Z,45.70
2023-03-24T05:46:16.971Z,45.90
2023-03-24T05:48:47.141Z,54.80
2023-03-24T05:51:24.136Z,49.40
2023-03-24T05:54:00.042Z,62.10
2023-03-24T05:56:49.374Z,63.90
2023-03-24T05:59:18.320Z,43.90
2023-03-24T06:02:04.068Z,50.70
2023-03-24T06:04:57.854Z,48.60
2023-03-24T06:07:30.964Z,49.00
2023-03-24T06:10:05.112Z,38.50
2023-03-24T06:12:45.896Z,42.60
2023-03-24T06:15:17.773Z,51.70
2023-03-24T06:17:55.854Z,40.00
2023-03-24T06:20:29.426Z,44.60
2023-03-24T06:23:09.181Z,47.40
2023-03-24T06:25:50.996Z,57.50
2023-03-24T06:28:30.593Z,44.00
2023-03-24T06:31:15.267Z,45.20
2023-03-24T06:33:46.047Z,39.70
2023-03-24T06:36:15.111Z,39.30
2023-03-24T06:41:21.844Z,42.20
2023-03-24T06:43:59.509Z,39.00
2023-03-24T06:46:28.521Z,44.40
2023-03-24T06:48:57.426Z,44.80
2023-03-24T06:51:28.128Z,42.10
2023-03-24T06:53:58.323Z,58.10
2023-03-24T06:56:28.548Z,46.30
2023-03-24T06:58:59.921Z,42.90
2023-03-24T07:01:35.448Z,39.60
2023-03-24T07:04:17.740Z,44.10
2023-03-24T07:07:17.615Z,42.70
2023-03-24T07:09:50.960Z,43.60
2023-03-24T07:12:20.115Z,44.10
2023-03-24T07:14:50.703Z,42.00
2023-03-24T07:17:21.570Z,55.50
2023-03-24T07:20:10.400Z,43.40
2023-03-24T07:22:51.271Z,37.00
2023-03-24T07:25:26.580Z,43.90
2023-03-24T07:28:03.943Z,40.40
2023-03-24T07:30:40.898Z,38.50
2023-03-24T07:33:13.946Z,46.00
2023-03-24T07:35:46.091Z,41.50
2023-03-24T07:38:16.536Z,41.80
2023-03-24T07:40:46.517Z,30.10
2023-03-24T07:43:15.876Z,39.80
2023-03-24T07:46:14.089Z,30.40
2023-03-24T07:48:43.158Z,31.50
2023-03-24T07:51:12.265Z,29.60
2023-03-24T07:53:54.511Z,35.10
2023-03-24T07:56:31.949Z,28.80
2023-03-24T07:59:01.621Z,36.10
2023-03-24T08:01:52.639Z,29.70
2023-03-24T08:04:35.365Z,31.40
2023-03-24T08:07:19.197Z,32.00
2023-03-24T08:09:48.077Z,27.40
2023-03-24T08:12:20.459Z,29.90
2023-03-24T08:14:49.797Z,35.20
2023-03-24T08:17:18.292Z,22.20
2023-03-24T08:20:00.222Z,35.00
2023-03-24T08:22:31.237Z,21.00
2023-03-24T08:24:59.768Z,24.90
2023-03-24T08:27:30.737Z,20.00
2023-03-24T08:29:59.267Z,24.60
2023-03-24T08:32:27.818Z,22.40
2023-03-24T08:34:58.292Z,21.60
2023-03-24T08:37:26.919Z,25.10
2023-03-24T08:39:58.939Z,25.80
2023-03-24T08:42:27.575Z,26.40
2023-03-24T08:44:56.177Z,18.60
2023-03-24T08:47:24.794Z,16.10
2023-03-24T08:49:57.757Z,22.10
2023-03-24T08:52:27.019Z,23.10
2023-03-24T08:54:55.806Z,20.20
2023-03-24T08:57:31.921Z,22.20
2023-03-24T09:00:01.135Z,18.40
2023-03-24T09:02:29.838Z,18.70
2023-03-24T09:05:03.414Z,19.00
2023-03-24T09:07:32.806Z,19.20
2023-03-24T09:10:01.771Z,21.60
2023-03-24T09:12:34.085Z,22.10
2023-03-24T09:15:03.389Z,16.80
2023-03-24T09:17:32.736Z,25.40
2023-03-24T09:20:02.258Z,16.20
2023-03-24T09:22:33.284Z,15.60
2023-03-24T09:25:01.909Z,18.40
2023-03-24T09:27:32.949Z,23.30
2023-03-24T09:30:01.667Z,18.70
2023-03-24T09:32:34.181Z,15.90
2023-03-24T09:35:02.910Z,16.30
2023-03-24T09:37:32.505Z,13.00
2023-03-24T09:40:01.758Z,25.40
2023-03-24T09:42:37.762Z,17.00
2023-03-24T09:45:17.866Z,19.30
2023-03-24T09:47:56.856Z,22.50
2023-03-24T09:50:38.469Z,17.10
2023-03-24T09:53:10.267Z,29.10
2023-03-24T09:55:39.659Z,22.00
2023-03-24T09:58:09.295Z,20.70
2023-03-24T10:00:38.791Z,13.70
2023-03-24T10:03:15.467Z,16.00
2023-03-24T10:06:14.254Z,23.50
2023-03-24T10:08:44.811Z,17.20
2023-03-24T10:11:26.469Z,16.30
2023-03-24T10:14:03.129Z,18.10
2023-03-24T10:17:02.270Z,21.40
2023-03-24T10:19:33.730Z,13.80
2023-03-24T10:22:26.067Z,13.70
2023-03-24T10:25:21.740Z,18.00
2023-03-24T10:27:58.207Z,20.20
2023-03-24T10:30:34.628Z,18.40
2023-03-24T10:33:04.166Z,18.30
2023-03-24T10:35:35.625Z,15.80
2023-03-24T10:38:09.545Z,12.70
2023-03-24T10:40:38.593Z,20.90
2023-03-24T10:43:09.607Z,17.40
2023-03-24T10:45:44.381Z,11.70
2023-03-24T10:48:14.456Z,22.30
2023-03-24T10:50:44.818Z,19.50
2023-03-24T10:53:19.993Z,9.10
2023-03-24T10:55:51.173Z,17.20
2023-03-24T10:58:40.870Z,12.80
2023-03-24T11:01:26.562Z,13.40
2023-03-24T11:04:07.413Z,14.70
2023-03-24T11:06:36.718Z,12.80
2023-03-24T11:09:19.184Z,11.80
2023-03-24T11:11:48.231Z,17.90
2023-03-24T11:14:25.664Z,19.50
2023-03-24T11:17:03.736Z,8.10
2023-03-24T11:19:33.071Z,23.50
2023-03-24T11:22:03.867Z,13.70
2023-03-24T11:24:38.262Z,10.70
2023-03-24T11:27:07.164Z,11.60
2023-03-24T11:29:39.011Z,8.10
2023-03-24T11:32:16.899Z,11.40
2023-03-24T11:34:47.503Z,18.80
2023-03-24T11:37:22.640Z,10.50
2023-03-24T11:40:19.260Z,15.70
2023-03-24T11:43:00.801Z,7.70
2023-03-24T11:45:40.399Z,16.30
2023-03-24T11:48:41.252Z,8.50
2023-03-24T11:51:12.882Z,7.90
2023-03-24T11:53:46.676Z,12.30
2023-03-24T11:56:37.260Z,14.60
2023-03-24T11:59:34.058Z,19.60
2023-03-24T12:02:10.782Z,16.30
2023-03-24T12:04:46.844Z,8.60
2023-03-24T12:07:33.109Z,10.00
2023-03-24T12:10:07.660Z,17.30
2023-03-24T12:13:29.644Z,11.40
2023-03-24T12:16:04.786Z,7.80
2023-03-24T12:18:48.149Z,17.70
2023-03-24T12:21:46.273Z,14.80
2023-03-24T12:24:49.731Z,9.60
2023-03-24T12:27:48.967Z,13.80
2023-03-24T12:30:36.892Z,15.60
2023-03-24T12:33:26.984Z,11.60
2023-03-24T12:35:59.328Z,11.30
2023-03-24T12:39:07.927Z,10.10
2023-03-24T12:41:37.164Z,8.90
2023-03-24T12:44:06.120Z,10.80
2023-03-24T12:47:19.608Z,16.00
2023-03-24T12:49:54.851Z,6.90
2023-03-24T12:52:31.454Z,15.40
2023-03-24T12:55:38.833Z,15.10
2023-03-24T12:58:30.877Z,8.70
2023-03-24T13:03:48.849Z,11.40
2023-03-24T13:06:23.312Z,7.10
2023-03-24T13:09:34.893Z,31.20
2023-03-24T13:12:07.988Z,9.00
2023-03-24T13:15:10.151Z,12.90
2023-03-24T13:18:06.361Z,8.60
2023-03-24T13:20:57.112Z,11.90
2023-03-24T13:23:30.938Z,8.90
2023-03-24T13:26:06.617Z,9.50
2023-03-24T13:28:44.277Z,7.40
2023-03-24T13:31:14.552Z,6.30
2023-03-24T13:33:44.603Z,9.10
2023-03-24T13:36:47.617Z,8.50
2023-03-24T13:39:19.053Z,26.10
2023-03-24T13:41:51.291Z,12.20
2023-03-24T13:47:03.137Z,9.80
2023-03-24T13:49:32.089Z,14.50
2023-03-24T13:52:03.997Z,5.50
2023-03-24T13:54:39.673Z,10.60
2023-03-24T13:57:15.198Z,8.80
2023-03-24T14:00:19.029Z,12.60
2023-03-24T14:03:03.913Z,10.80
2023-03-24T14:06:00.492Z,8.10
2023-03-24T14:08:52.169Z,15.90
2023-03-24T14:11:34.716Z,7.90
2023-03-24T14:14:13.538Z,6.20
2023-03-24T14:16:42.926Z,15.20
2023-03-24T14:19:24.750Z,12.90
2023-03-24T14:22:13.422Z,8.00
2023-03-24T14:24:44.271Z,8.10
2023-03-24T14:27:34.765Z,7.40
2023-03-24T14:30:14.965Z,7.80
2023-03-24T14:32:49.036Z,8.30
2023-03-24T14:35:26.526Z,63.60
2023-03-24T14:38:26.393Z,25.80
2023-03-24T14:40:58.948Z,133.30
2023-03-24T14:43:49.097Z,30.90
2023-03-24T14:46:20.940Z,47.50
2023-03-24T14:49:13.148Z,74.70
2023-03-24T14:51:49.052Z,105.20
2023-03-24T14:54:42.526Z,25.30
2023-03-24T14:59:59.326Z,10.00
2023-03-24T15:02:34.408Z,13.30
2023-03-24T15:05:15.782Z,20.50
2023-03-24T15:07:46.391Z,32.00
2023-03-24T15:10:19.473Z,93.80
2023-03-24T15:12:49.436Z,76.70
2023-03-24T15:15:24.604Z,58.20
2023-03-24T15:17:53.491Z,97.40
2023-03-24T15:20:24.034Z,26.20
2023-03-24T15:22:55.490Z,44.20
2023-03-24T15:25:28.356Z,43.90
2023-03-24T15:27:58.604Z,36.60
2023-03-24T15:30:28.399Z,139.30
2023-03-24T15:32:57.114Z,155.40
2023-03-24T15:35:25.826Z,199.50
2023-03-24T15:37:56.692Z,195.50
2023-03-24T15:40:29.808Z,127.70
2023-03-24T15:43:03.269Z,324.40
2023-03-24T15:45:51.059Z,253.50
2023-03-24T15:48:24.784Z,409.70
2023-03-24T15:51:01.452Z,399.50
2023-03-24T15:53:33.481Z,399.00
2023-03-24T15:56:26.311Z,203.30
2023-03-24T15:58:57.702Z,128.50
2023-03-24T16:01:36.622Z,96.70
2023-03-24T16:04:06.563Z,164.10
2023-03-24T16:06:36.232Z,115.80
2023-03-24T16:09:10.874Z,94.20
2023-03-24T16:11:41.680Z,148.30
2023-03-24T16:14:28.647Z,129.30
2023-03-24T16:16:59.673Z,65.60
2023-03-24T16:19:30.002Z,36.50
2023-03-24T16:21:59.990Z,51.50
2023-03-24T16:24:29.730Z,78.80
2023-03-24T16:26:58.752Z,104.20
2023-03-24T16:29:27.126Z,64.20
2023-03-24T16:31:56.743Z,93.10
2023-03-24T16:34:25.772Z,164.70
2023-03-24T16:36:54.660Z,162.50
2023-03-24T16:39:25.074Z,200.90
2023-03-24T16:41:54.555Z,160.70
2023-03-24T16:44:24.323Z,255.90
2023-03-24T16:46:54.113Z,260.50
2023-03-24T16:49:24.349Z,265.10
2023-03-24T16:51:54.074Z,258.20
2023-03-24T16:54:26.104Z,158.40
2023-03-24T16:56:55.485Z,111.50
2023-03-24T16:59:24.809Z,83.50
2023-03-24T17:01:56.361Z,64.30
2023-03-24T17:04:27.679Z,54.20
2023-03-24T17:06:57.775Z,55.70
2023-03-24T17:09:28.784Z,51.00
2023-03-24T17:11:57.629Z,48.80
2023-03-24T17:14:33.126Z,50.20
2023-03-24T17:17:04.181Z,58.40
2023-03-24T17:19:33.281Z,59.30
2023-03-24T17:22:06.932Z,91.40
2023-03-24T17:24:38.324Z,122.10
2023-03-24T17:27:18.966Z,117.50
2023-03-24T17:29:47.645Z,294.10
2023-03-24T17:32:16.403Z,293.90
2023-03-24T17:34:45.683Z,209.80
2023-03-24T17:37:15.678Z,148.00
2023-03-24T17:39:45.063Z,94.90
2023-03-24T17:42:15.149Z,84.20
2023-03-24T17:44:45.457Z,61.60
2023-03-24T17:47:14.235Z,65.20
2023-03-24T17:50:09.770Z,56.50
2023-03-24T17:52:41.222Z,68.50
2023-03-24T17:55:11.758Z,47.80
2023-03-24T17:57:40.464Z,59.70
2023-03-24T18:00:13.349Z,88.70
2023-03-24T18:02:42.905Z,82.20
2023-03-24T18:05:16.148Z,69.50
2023-03-24T18:07:47.711Z,62.70
2023-03-24T18:10:16.913Z,60.00
2023-03-24T18:12:47.665Z,75.20
2023-03-24T18:15:16.829Z,49.30
2023-03-24T18:17:46.242Z,39.40
2023-03-24T18:20:18.890Z,26.60
2023-03-24T18:22:47.687Z,19.30
2023-03-24T18:25:16.718Z,20.00
2023-03-24T18:27:46.238Z,21.20
2023-03-24T18:30:15.722Z,26.70
2023-03-24T18:32:44.691Z,38.80
2023-03-24T18:35:16.680Z,34.30
2023-03-24T18:37:46.194Z,42.80
2023-03-24T18:40:16.098Z,26.00
2023-03-24T18:42:45.742Z,39.10
2023-03-24T18:45:17.806Z,34.00
2023-03-24T18:47:48.582Z,44.70
2023-03-24T18:50:17.825Z,43.90
2023-03-24T18:55:20.986Z,37.00
2023-03-24T18:57:49.773Z,30.80
2023-03-24T19:00:21.999Z,28.70
2023-03-24T19:02:52.755Z,33.60
2023-03-24T19:05:22.215Z,37.20
2023-03-24T19:07:52.195Z,74.90
2023-03-24T19:10:21.013Z,193.30
2023-03-24T19:12:50.117Z,133.60
2023-03-24T19:15:18.861Z,75.90
2023-03-24T19:17:47.126Z,36.40
2023-03-24T19:20:18.715Z,35.00
2023-03-24T19:22:47.576Z,38.30
2023-03-24T19:25:16.021Z,28.70
2023-03-24T19:27:48.018Z,26.10
2023-03-24T19:30:18.444Z,28.60
2023-03-24T19:32:48.201Z,21.60
2023-03-24T19:35:22.336Z,28.50
2023-03-24T19:37:51.149Z,29.80
2023-03-24T19:40:23.710Z,29.90
2023-03-24T19:42:52.545Z,26.00
2023-03-24T19:45:21.185Z,26.30
2023-03-24T19:47:50.691Z,22.00
2023-03-24T19:50:20.325Z,18.90
2023-03-24T19:52:51.927Z,31.20
2023-03-24T19:55:22.162Z,28.00
2023-03-24T19:57:51.206Z,20.40
2023-03-24T20:00:20.663Z,21.60
2023-03-24T20:02:49.550Z,23.30
2023-03-24T20:05:18.411Z,23.60
2023-03-24T20:07:48.182Z,22.30
2023-03-24T20:10:17.034Z,25.60
2023-03-24T20:12:46.446Z,17.40
2023-03-24T20:15:15.764Z,25.20
2023-03-24T20:17:44.600Z,28.00
2023-03-24T20:20:15.811Z,29.80
2023-03-24T20:22:48.857Z,32.60
2023-03-24T20:25:18.240Z,22.00
2023-03-24T20:27:48.073Z,29.80
2023-03-24T20:30:17.763Z,30.80
2023-03-24T20:32:48.518Z,22.00
2023-03-24T20:35:18.782Z,27.00
2023-03-24T20:37:47.619Z,32.90
2023-03-24T20:40:16.471Z,23.00
2023-03-24T20:42:46.778Z,30.80
2023-03-24T20:45:15.757Z,26.10
2023-03-24T20:47:44.796Z,33.60
2023-03-24T20:50:14.080Z,24.20
2023-03-24T20:52:47.759Z,28.10
2023-03-24T20:55:36.638Z,24.60
2023-03-24T20:58:08.597Z,26.20
2023-03-24T21:00:42.212Z,31.40
2023-03-24T21:03:11.711Z,29.40
2023-03-24T21:05:41.199Z,22.30
2023-03-24T21:08:09.876Z,26.50
2023-03-24T21:10:45.244Z,30.20
2023-03-24T21:13:17.246Z,31.60
2023-03-24T21:15:46.410Z,40.20
2023-03-24T21:18:18.339Z,37.70
2023-03-24T21:20:55.417Z,37.40
2023-03-24T21:23:24.784Z,38.30
2023-03-24T21:25:56.427Z,49.30
2023-03-24T21:28:28.407Z,44.90
2023-03-24T21:31:06.456Z,52.10
2023-03-24T21:33:40.262Z,50.80
2023-03-24T21:36:10.119Z,44.30
2023-03-24T21:38:39.309Z,53.30
2023-03-24T21:41:07.991Z,51.90
2023-03-24T21:43:37.507Z,45.60
2023-03-24T21:46:07.041Z,42.50
2023-03-24T21:48:40.288Z,42.80
2023-03-24T21:51:10.320Z,43.40
2023-03-24T21:53:38.880Z,45.90
2023-03-24T21:56:08.023Z,45.80
2023-03-24T21:58:37.874Z,45.00
2023-03-24T22:01:07.341Z,69.10
2023-03-24T22:03:37.493Z,60.70
2023-03-24T22:06:10.759Z,46.40
2023-03-24T22:08:43.876Z,43.20
2023-03-24T22:11:15.681Z,46.30
2023-03-24T22:13:44.479Z,35.50
2023-03-24T22:16:13.818Z,33.20
2023-03-24T22:18:42.626Z,44.40
2023-03-24T22:21:13.945Z,47.60
2023-03-24T22:23:45.123Z,44.50
2023-03-24T22:26:15.581Z,42.40
2023-03-24T22:28:45.561Z,41.30
2023-03-24T22:31:16.950Z,37.30
2023-03-24T22:33:47.733Z,38.10
2023-03-24T22:36:16.937Z,34.20
2023-03-24T22:38:46.290Z,38.20
2023-03-24T22:41:18.698Z,30.90
2023-03-24T22:43:47.667Z,34.40
2023-03-24T22:46:16.592Z,38.60
2023-03-24T22:48:47.350Z,42.00
2023-03-24T22:51:19.382Z,41.00
2023-03-24T22:53:52.684Z,37.30
2023-03-24T22:56:20.868Z,44.30
2023-03-24T22:58:49.100Z,31.70
2023-03-24T23:01:18.135Z,33.10
2023-03-24T23:03:46.640Z,49.00
2023-03-24T23:06:21.572Z,38.30
2023-03-24T23:08:53.732Z,39.20
2023-03-24T23:11:22.263Z,49.40
2023-03-24T23:14:05.516Z,38.00
2023-03-24T23:16:38.024Z,40.60
2023-03-24T23:19:09.826Z,50.70
2023-03-24T23:21:39.769Z,48.60
2023-03-24T23:24:08.561Z,41.30
2023-03-24T23:26:39.453Z,43.50
2023-03-24T23:29:09.913Z,47.80
2023-03-24T23:31:43.366Z,35.10
2023-03-24T23:34:12.167Z,33.90
2023-03-24T23:36:45.182Z,44.90
2023-03-24T23:39:17.590Z,45.80
2023-03-24T23:41:46.754Z,42.30
2023-03-24T23:44:19.770Z,46.10
2023-03-24T23:46:50.760Z,42.30
2023-03-24T23:49:19.419Z,42.10
2023-03-24T23:51:48.179Z,40.80
2023-03-24T23:54:17.824Z,45.30
2023-03-24T23:56:47.402Z,41.30
2023-03-24T23:59:16.109Z,42.90
